sensor_id;sensor_type;location;lat;lon;timestamp;temperature;humidity
74792;SHT30;63319;46.046;17.802;2022-11-30T00:00:10;19.32;47.41
74792;SHT30;63319;46.046;17.802;2022-11-30T00:03:13;19.28;47.11
74792;SHT30;63319;46.046;17.802;2022-11-30T00:06:16;19.31;47.44
74792;SHT30;63319;46.046;17.802;2022-11-30T00:09:24;19.28;47.92
74792;SHT30;63319;46.046;17.802;2022-11-30T00:12:27;19.31;47.63
74792;SHT30;63319;46.046;17.802;2022-11-30T00:15:30;19.32;47.68
74792;SHT30;63319;46.046;17.802;2022-11-30T00:18:34;19.31;48.07
74792;SHT30;63319;46.046;17.802;2022-11-30T00:21:37;19.31;47.62
74792;SHT30;63319;46.046;17.802;2022-11-30T00:24:39;19.32;47.69
74792;SHT30;63319;46.046;17.802;2022-11-30T00:27:42;19.31;47.80
74792;SHT30;63319;46.046;17.802;2022-11-30T00:30:45;19.32;47.69
74792;SHT30;63319;46.046;17.802;2022-11-30T00:33:47;19.32;47.90
74792;SHT30;63319;46.046;17.802;2022-11-30T00:36:50;19.32;47.72
74792;SHT30;63319;46.046;17.802;2022-11-30T00:39:53;19.34;47.87
74792;SHT30;63319;46.046;17.802;2022-11-30T00:42:56;19.32;47.64
74792;SHT30;63319;46.046;17.802;2022-11-30T00:45:59;19.32;47.28
74792;SHT30;63319;46.046;17.802;2022-11-30T00:49:01;19.28;47.65
74792;SHT30;63319;46.046;17.802;2022-11-30T00:52:04;19.32;47.61
74792;SHT30;63319;46.046;17.802;2022-11-30T00:55:08;19.32;47.48
74792;SHT30;63319;46.046;17.802;2022-11-30T00:58:11;19.34;47.29
74792;SHT30;63319;46.046;17.802;2022-11-30T01:01:14;19.30;47.71
74792;SHT30;63319;46.046;17.802;2022-11-30T01:04:17;19.34;47.42
74792;SHT30;63319;46.046;17.802;2022-11-30T01:07:20;19.34;47.47
74792;SHT30;63319;46.046;17.802;2022-11-30T01:10:23;19.27;47.85
74792;SHT30;63319;46.046;17.802;2022-11-30T01:13:25;19.28;47.29
74792;SHT30;63319;46.046;17.802;2022-11-30T01:16:31;19.31;47.60
74792;SHT30;63319;46.046;17.802;2022-11-30T01:19:34;19.27;47.60
74792;SHT30;63319;46.046;17.802;2022-11-30T01:22:37;19.30;47.78
74792;SHT30;63319;46.046;17.802;2022-11-30T01:25:39;19.31;47.76
74792;SHT30;63319;46.046;17.802;2022-11-30T01:28:43;19.30;47.63
74792;SHT30;63319;46.046;17.802;2022-11-30T01:31:45;19.31;47.77
74792;SHT30;63319;46.046;17.802;2022-11-30T01:34:48;19.32;47.05
74792;SHT30;63319;46.046;17.802;2022-11-30T01:38:08;19.27;47.75
74792;SHT30;63319;46.046;17.802;2022-11-30T01:41:16;19.31;47.51
74792;SHT30;63319;46.046;17.802;2022-11-30T01:47:35;19.27;47.72
74792;SHT30;63319;46.046;17.802;2022-11-30T01:50:38;19.28;47.25
74792;SHT30;63319;46.046;17.802;2022-11-30T01:53:41;19.28;47.77
74792;SHT30;63319;46.046;17.802;2022-11-30T01:56:48;19.25;47.38
74792;SHT30;63319;46.046;17.802;2022-11-30T01:59:56;19.27;47.68
74792;SHT30;63319;46.046;17.802;2022-11-30T02:06:22;19.27;47.59
74792;SHT30;63319;46.046;17.802;2022-11-30T02:09:27;19.27;47.56
74792;SHT30;63319;46.046;17.802;2022-11-30T02:12:38;19.25;47.22
74792;SHT30;63319;46.046;17.802;2022-11-30T02:16:03;19.23;47.61
74792;SHT30;63319;46.046;17.802;2022-11-30T02:22:53;19.25;47.33
74792;SHT30;63319;46.046;17.802;2022-11-30T02:26:25;19.24;47.62
74792;SHT30;63319;46.046;17.802;2022-11-30T02:29:53;19.23;47.11
74792;SHT30;63319;46.046;17.802;2022-11-30T02:33:04;19.25;47.14
74792;SHT30;63319;46.046;17.802;2022-11-30T02:36:08;19.23;47.28
74792;SHT30;63319;46.046;17.802;2022-11-30T02:39:11;19.23;46.99
74792;SHT30;63319;46.046;17.802;2022-11-30T02:42:14;19.23;47.31
74792;SHT30;63319;46.046;17.802;2022-11-30T02:45:33;19.20;47.14
74792;SHT30;63319;46.046;17.802;2022-11-30T02:49:04;19.24;47.29
74792;SHT30;63319;46.046;17.802;2022-11-30T02:52:09;19.24;47.07
74792;SHT30;63319;46.046;17.802;2022-11-30T02:55:16;19.23;47.40
74792;SHT30;63319;46.046;17.802;2022-11-30T02:58:19;19.20;47.32
74792;SHT30;63319;46.046;17.802;2022-11-30T03:01:22;19.21;47.49
74792;SHT30;63319;46.046;17.802;2022-11-30T03:04:25;19.21;47.07
74792;SHT30;63319;46.046;17.802;2022-11-30T03:07:45;19.25;46.99
74792;SHT30;63319;46.046;17.802;2022-11-30T03:10:48;19.24;47.12
74792;SHT30;63319;46.046;17.802;2022-11-30T03:13:51;19.24;47.38
74792;SHT30;63319;46.046;17.802;2022-11-30T03:16:54;19.24;47.49
74792;SHT30;63319;46.046;17.802;2022-11-30T03:20:01;19.27;47.09
74792;SHT30;63319;46.046;17.802;2022-11-30T03:23:04;19.23;47.30
74792;SHT30;63319;46.046;17.802;2022-11-30T03:26:07;19.21;47.40
74792;SHT30;63319;46.046;17.802;2022-11-30T03:29:10;19.21;47.64
74792;SHT30;63319;46.046;17.802;2022-11-30T03:32:13;19.21;47.57
74792;SHT30;63319;46.046;17.802;2022-11-30T03:35:16;19.23;47.39
74792;SHT30;63319;46.046;17.802;2022-11-30T03:38:19;19.24;47.53
74792;SHT30;63319;46.046;17.802;2022-11-30T03:41:21;19.24;47.43
74792;SHT30;63319;46.046;17.802;2022-11-30T03:44:24;19.23;47.30
74792;SHT30;63319;46.046;17.802;2022-11-30T03:47:27;19.24;47.39
74792;SHT30;63319;46.046;17.802;2022-11-30T03:50:29;19.23;47.36
74792;SHT30;63319;46.046;17.802;2022-11-30T03:53:32;19.24;47.27
74792;SHT30;63319;46.046;17.802;2022-11-30T03:56:35;19.21;47.46
74792;SHT30;63319;46.046;17.802;2022-11-30T03:59:38;19.23;46.98
74792;SHT30;63319;46.046;17.802;2022-11-30T04:02:40;19.24;47.51
74792;SHT30;63319;46.046;17.802;2022-11-30T04:05:46;19.21;47.11
74792;SHT30;63319;46.046;17.802;2022-11-30T04:08:49;19.20;47.56
74792;SHT30;63319;46.046;17.802;2022-11-30T04:11:52;19.20;47.53
74792;SHT30;63319;46.046;17.802;2022-11-30T04:14:55;19.23;47.66
74792;SHT30;63319;46.046;17.802;2022-11-30T04:17:57;19.21;47.56
74792;SHT30;63319;46.046;17.802;2022-11-30T04:21:00;19.23;47.61
74792;SHT30;63319;46.046;17.802;2022-11-30T04:24:04;19.24;47.55
74792;SHT30;63319;46.046;17.802;2022-11-30T04:27:07;19.23;47.39
74792;SHT30;63319;46.046;17.802;2022-11-30T04:30:10;19.23;48.30
74792;SHT30;63319;46.046;17.802;2022-11-30T04:33:14;19.28;48.40
74792;SHT30;63319;46.046;17.802;2022-11-30T04:36:18;19.27;48.41
74792;SHT30;63319;46.046;17.802;2022-11-30T04:39:21;19.30;48.34
74792;SHT30;63319;46.046;17.802;2022-11-30T04:42:24;19.35;48.32
74792;SHT30;63319;46.046;17.802;2022-11-30T04:45:27;19.36;48.29
74792;SHT30;63319;46.046;17.802;2022-11-30T04:48:37;19.41;48.33
74792;SHT30;63319;46.046;17.802;2022-11-30T04:51:39;19.44;48.21
74792;SHT30;63319;46.046;17.802;2022-11-30T04:54:42;19.42;48.22
74792;SHT30;63319;46.046;17.802;2022-11-30T04:57:45;19.42;48.25
74792;SHT30;63319;46.046;17.802;2022-11-30T05:00:49;19.45;48.21
74792;SHT30;63319;46.046;17.802;2022-11-30T05:03:54;19.44;48.21
74792;SHT30;63319;46.046;17.802;2022-11-30T05:06:58;19.45;48.24
74792;SHT30;63319;46.046;17.802;2022-11-30T05:10:01;19.45;48.24
74792;SHT30;63319;46.046;17.802;2022-11-30T05:13:04;19.47;48.23
74792;SHT30;63319;46.046;17.802;2022-11-30T05:16:09;19.50;48.19
74792;SHT30;63319;46.046;17.802;2022-11-30T05:19:12;19.50;48.14
74792;SHT30;63319;46.046;17.802;2022-11-30T05:22:16;19.52;48.11
74792;SHT30;63319;46.046;17.802;2022-11-30T05:25:18;19.51;48.10
74792;SHT30;63319;46.046;17.802;2022-11-30T05:28:21;19.54;48.12
74792;SHT30;63319;46.046;17.802;2022-11-30T05:31:24;19.57;48.07
74792;SHT30;63319;46.046;17.802;2022-11-30T05:34:27;19.57;48.00
74792;SHT30;63319;46.046;17.802;2022-11-30T05:37:29;19.55;47.62
74792;SHT30;63319;46.046;17.802;2022-11-30T05:40:32;19.54;47.52
74792;SHT30;63319;46.046;17.802;2022-11-30T05:43:35;19.52;47.68
74792;SHT30;63319;46.046;17.802;2022-11-30T05:46:37;19.54;47.47
74792;SHT30;63319;46.046;17.802;2022-11-30T05:49:42;19.52;47.42
74792;SHT30;63319;46.046;17.802;2022-11-30T05:52:45;19.50;47.34
74792;SHT30;63319;46.046;17.802;2022-11-30T05:55:48;19.50;47.55
74792;SHT30;63319;46.046;17.802;2022-11-30T05:58:51;19.51;47.22
74792;SHT30;63319;46.046;17.802;2022-11-30T06:01:54;19.50;47.18
74792;SHT30;63319;46.046;17.802;2022-11-30T06:04:56;19.48;47.14
74792;SHT30;63319;46.046;17.802;2022-11-30T06:07:59;19.48;47.26
74792;SHT30;63319;46.046;17.802;2022-11-30T06:11:02;19.48;47.45
74792;SHT30;63319;46.046;17.802;2022-11-30T06:14:05;19.50;47.56
74792;SHT30;63319;46.046;17.802;2022-11-30T06:17:07;19.48;47.57
74792;SHT30;63319;46.046;17.802;2022-11-30T06:20:12;19.45;47.45
74792;SHT30;63319;46.046;17.802;2022-11-30T06:23:14;19.47;47.69
74792;SHT30;63319;46.046;17.802;2022-11-30T06:26:17;19.45;47.64
74792;SHT30;63319;46.046;17.802;2022-11-30T06:29:20;19.47;47.75
74792;SHT30;63319;46.046;17.802;2022-11-30T06:32:23;19.48;47.69
74792;SHT30;63319;46.046;17.802;2022-11-30T06:35:25;19.48;47.72
74792;SHT30;63319;46.046;17.802;2022-11-30T06:38:28;19.47;47.58
74792;SHT30;63319;46.046;17.802;2022-11-30T06:41:31;19.50;47.69
74792;SHT30;63319;46.046;17.802;2022-11-30T06:44:34;19.50;47.89
74792;SHT30;63319;46.046;17.802;2022-11-30T06:47:39;19.55;48.54
74792;SHT30;63319;46.046;17.802;2022-11-30T06:50:42;19.55;48.83
74792;SHT30;63319;46.046;17.802;2022-11-30T06:53:54;19.62;48.69
74792;SHT30;63319;46.046;17.802;2022-11-30T06:56:58;19.65;48.64
74792;SHT30;63319;46.046;17.802;2022-11-30T07:00:00;19.63;48.73
74792;SHT30;63319;46.046;17.802;2022-11-30T07:03:04;19.63;48.44
74792;SHT30;63319;46.046;17.802;2022-11-30T07:06:12;19.66;48.38
74792;SHT30;63319;46.046;17.802;2022-11-30T07:09:15;19.69;48.72
74792;SHT30;63319;46.046;17.802;2022-11-30T07:12:18;19.71;48.75
74792;SHT30;63319;46.046;17.802;2022-11-30T07:15:20;19.68;48.78
74792;SHT30;63319;46.046;17.802;2022-11-30T07:18:23;19.69;49.09
74792;SHT30;63319;46.046;17.802;2022-11-30T07:21:33;19.72;49.24
74792;SHT30;63319;46.046;17.802;2022-11-30T07:24:36;19.72;49.83
74792;SHT30;63319;46.046;17.802;2022-11-30T07:27:57;19.72;50.58
74792;SHT30;63319;46.046;17.802;2022-11-30T07:31:00;19.73;50.80
74792;SHT30;63319;46.046;17.802;2022-11-30T07:34:05;19.78;51.38
74792;SHT30;63319;46.046;17.802;2022-11-30T07:37:08;19.78;51.30
74792;SHT30;63319;46.046;17.802;2022-11-30T07:40:11;19.78;52.06
74792;SHT30;63319;46.046;17.802;2022-11-30T07:43:14;19.82;52.21
74792;SHT30;63319;46.046;17.802;2022-11-30T07:46:17;19.87;52.26
74792;SHT30;63319;46.046;17.802;2022-11-30T07:49:28;19.86;52.53
74792;SHT30;63319;46.046;17.802;2022-11-30T07:52:32;19.87;52.61
74792;SHT30;63319;46.046;17.802;2022-11-30T07:55:34;19.87;52.20
74792;SHT30;63319;46.046;17.802;2022-11-30T07:58:38;19.85;52.01
74792;SHT30;63319;46.046;17.802;2022-11-30T08:01:41;19.85;52.16
74792;SHT30;63319;46.046;17.802;2022-11-30T08:04:44;19.86;52.31
74792;SHT30;63319;46.046;17.802;2022-11-30T08:07:50;19.83;52.41
74792;SHT30;63319;46.046;17.802;2022-11-30T08:10:57;19.87;52.57
74792;SHT30;63319;46.046;17.802;2022-11-30T08:14:01;19.83;52.61
74792;SHT30;63319;46.046;17.802;2022-11-30T08:17:04;19.85;52.73
74792;SHT30;63319;46.046;17.802;2022-11-30T08:20:08;19.85;52.68
74792;SHT30;63319;46.046;17.802;2022-11-30T08:23:12;19.85;53.00
74792;SHT30;63319;46.046;17.802;2022-11-30T08:26:17;19.86;52.77
74792;SHT30;63319;46.046;17.802;2022-11-30T08:29:20;19.87;52.82
74792;SHT30;63319;46.046;17.802;2022-11-30T08:32:23;19.87;53.06
74792;SHT30;63319;46.046;17.802;2022-11-30T08:35:26;19.87;52.94
74792;SHT30;63319;46.046;17.802;2022-11-30T08:38:29;19.89;53.14
74792;SHT30;63319;46.046;17.802;2022-11-30T08:41:33;19.90;53.28
74792;SHT30;63319;46.046;17.802;2022-11-30T08:44:36;19.89;52.92
74792;SHT30;63319;46.046;17.802;2022-11-30T08:47:39;19.93;52.87
74792;SHT30;63319;46.046;17.802;2022-11-30T08:50:43;19.93;53.05
74792;SHT30;63319;46.046;17.802;2022-11-30T08:53:46;19.96;52.88
74792;SHT30;63319;46.046;17.802;2022-11-30T08:56:49;19.99;52.76
74792;SHT30;63319;46.046;17.802;2022-11-30T08:59:52;19.99;52.23
74792;SHT30;63319;46.046;17.802;2022-11-30T09:02:55;19.97;52.24
74792;SHT30;63319;46.046;17.802;2022-11-30T09:06:09;19.97;52.36
74792;SHT30;63319;46.046;17.802;2022-11-30T09:09:14;19.97;52.62
74792;SHT30;63319;46.046;17.802;2022-11-30T09:12:17;20.00;52.55
74792;SHT30;63319;46.046;17.802;2022-11-30T09:15:19;20.02;52.75
74792;SHT30;63319;46.046;17.802;2022-11-30T09:18:22;20.05;52.76
74792;SHT30;63319;46.046;17.802;2022-11-30T09:21:25;20.05;53.27
74792;SHT30;63319;46.046;17.802;2022-11-30T09:24:28;20.06;53.30
74792;SHT30;63319;46.046;17.802;2022-11-30T09:27:31;20.09;53.58
74792;SHT30;63319;46.046;17.802;2022-11-30T09:30:34;20.13;53.56
74792;SHT30;63319;46.046;17.802;2022-11-30T09:33:37;20.17;53.76
74792;SHT30;63319;46.046;17.802;2022-11-30T09:36:40;20.14;54.13
74792;SHT30;63319;46.046;17.802;2022-11-30T09:39:43;20.14;54.16
74792;SHT30;63319;46.046;17.802;2022-11-30T09:43:00;20.19;54.46
74792;SHT30;63319;46.046;17.802;2022-11-30T09:46:07;20.19;54.24
74792;SHT30;63319;46.046;17.802;2022-11-30T09:52:34;20.12;54.33
74792;SHT30;63319;46.046;17.802;2022-11-30T09:55:41;20.14;54.20
74792;SHT30;63319;46.046;17.802;2022-11-30T09:58:53;20.12;54.19
74792;SHT30;63319;46.046;17.802;2022-11-30T10:02:01;20.12;54.31
74792;SHT30;63319;46.046;17.802;2022-11-30T10:05:17;20.12;54.37
74792;SHT30;63319;46.046;17.802;2022-11-30T10:18:05;20.12;54.23
74792;SHT30;63319;46.046;17.802;2022-11-30T10:28:16;20.10;53.89
74792;SHT30;63319;46.046;17.802;2022-11-30T10:31:41;20.09;53.93
74792;SHT30;63319;46.046;17.802;2022-11-30T10:34:48;20.09;54.23
74792;SHT30;63319;46.046;17.802;2022-11-30T10:37:54;20.09;53.79
74792;SHT30;63319;46.046;17.802;2022-11-30T10:41:07;20.09;54.02
74792;SHT30;63319;46.046;17.802;2022-11-30T10:44:18;20.10;53.59
74792;SHT30;63319;46.046;17.802;2022-11-30T10:47:25;20.12;53.31
74792;SHT30;63319;46.046;17.802;2022-11-30T10:50:29;20.09;53.57
74792;SHT30;63319;46.046;17.802;2022-11-30T10:53:38;20.09;53.08
74792;SHT30;63319;46.046;17.802;2022-11-30T10:56:42;20.10;53.53
74792;SHT30;63319;46.046;17.802;2022-11-30T10:59:53;20.10;53.89
74792;SHT30;63319;46.046;17.802;2022-11-30T11:03:24;20.12;53.36
74792;SHT30;63319;46.046;17.802;2022-11-30T11:06:28;20.09;52.00
74792;SHT30;63319;46.046;17.802;2022-11-30T11:09:44;20.06;51.83
74792;SHT30;63319;46.046;17.802;2022-11-30T11:12:52;20.05;52.57
74792;SHT30;63319;46.046;17.802;2022-11-30T11:15:57;20.05;52.66
74792;SHT30;63319;46.046;17.802;2022-11-30T11:19:03;20.08;52.56
74792;SHT30;63319;46.046;17.802;2022-11-30T11:22:26;20.02;52.42
74792;SHT30;63319;46.046;17.802;2022-11-30T11:25:33;20.03;52.86
74792;SHT30;63319;46.046;17.802;2022-11-30T11:28:43;20.03;52.51
74792;SHT30;63319;46.046;17.802;2022-11-30T11:31:46;20.06;52.95
74792;SHT30;63319;46.046;17.802;2022-11-30T11:34:50;20.06;52.68
74792;SHT30;63319;46.046;17.802;2022-11-30T11:37:53;20.08;53.00
74792;SHT30;63319;46.046;17.802;2022-11-30T11:41:04;20.10;52.42
74792;SHT30;63319;46.046;17.802;2022-11-30T11:47:25;20.08;52.39
74792;SHT30;63319;46.046;17.802;2022-11-30T11:50:36;20.09;52.86
74792;SHT30;63319;46.046;17.802;2022-11-30T11:57:45;20.10;52.67
74792;SHT30;63319;46.046;17.802;2022-11-30T12:00:50;20.12;52.63
74792;SHT30;63319;46.046;17.802;2022-11-30T12:11:04;20.06;52.80
74792;SHT30;63319;46.046;17.802;2022-11-30T12:14:14;20.09;52.96
74792;SHT30;63319;46.046;17.802;2022-11-30T12:17:59;20.09;52.76
74792;SHT30;63319;46.046;17.802;2022-11-30T12:21:28;20.09;52.55
74792;SHT30;63319;46.046;17.802;2022-11-30T12:31:48;20.05;52.45
74792;SHT30;63319;46.046;17.802;2022-11-30T12:35:08;20.06;52.30
74792;SHT30;63319;46.046;17.802;2022-11-30T12:41:53;20.06;52.70
74792;SHT30;63319;46.046;17.802;2022-11-30T12:51:42;20.03;52.50
74792;SHT30;63319;46.046;17.802;2022-11-30T13:04:46;20.08;52.84
74792;SHT30;63319;46.046;17.802;2022-11-30T13:08:04;20.09;52.46
74792;SHT30;63319;46.046;17.802;2022-11-30T13:11:17;20.09;52.69
74792;SHT30;63319;46.046;17.802;2022-11-30T13:14:24;20.08;52.77
74792;SHT30;63319;46.046;17.802;2022-11-30T13:17:27;20.08;52.28
74792;SHT30;63319;46.046;17.802;2022-11-30T13:20:39;20.08;52.11
74792;SHT30;63319;46.046;17.802;2022-11-30T13:23:54;20.06;51.35
74792;SHT30;63319;46.046;17.802;2022-11-30T13:27:16;20.06;51.62
74792;SHT30;63319;46.046;17.802;2022-11-30T13:30:34;20.03;51.85
74792;SHT30;63319;46.046;17.802;2022-11-30T13:37:24;20.05;51.77
74792;SHT30;63319;46.046;17.802;2022-11-30T13:40:29;20.03;51.59
74792;SHT30;63319;46.046;17.802;2022-11-30T13:43:41;20.03;51.44
74792;SHT30;63319;46.046;17.802;2022-11-30T13:46:49;20.00;51.71
74792;SHT30;63319;46.046;17.802;2022-11-30T13:50:03;20.02;65.68
74792;SHT30;63319;46.046;17.802;2022-11-30T13:56:32;19.82;53.57
74792;SHT30;63319;46.046;17.802;2022-11-30T13:59:46;19.79;54.01
74792;SHT30;63319;46.046;17.802;2022-11-30T14:02:50;19.86;54.70
74792;SHT30;63319;46.046;17.802;2022-11-30T14:05:57;19.86;55.00
74792;SHT30;63319;46.046;17.802;2022-11-30T14:09:00;19.92;56.10
74792;SHT30;63319;46.046;17.802;2022-11-30T14:18:42;19.92;57.30
74792;SHT30;63319;46.046;17.802;2022-11-30T14:21:45;19.94;57.01
74792;SHT30;63319;46.046;17.802;2022-11-30T14:24:48;19.92;56.97
74792;SHT30;63319;46.046;17.802;2022-11-30T14:27:53;19.93;56.83
74792;SHT30;63319;46.046;17.802;2022-11-30T14:31:17;19.90;57.21
74792;SHT30;63319;46.046;17.802;2022-11-30T14:34:36;19.93;56.48
74792;SHT30;63319;46.046;17.802;2022-11-30T14:37:44;19.90;56.88
74792;SHT30;63319;46.046;17.802;2022-11-30T14:40:52;19.90;56.40
74792;SHT30;63319;46.046;17.802;2022-11-30T14:44:12;19.92;56.44
74792;SHT30;63319;46.046;17.802;2022-11-30T14:47:21;19.92;56.83
74792;SHT30;63319;46.046;17.802;2022-11-30T14:50:25;19.94;56.75
74792;SHT30;63319;46.046;17.802;2022-11-30T14:53:49;19.93;56.12
74792;SHT30;63319;46.046;17.802;2022-11-30T14:56:59;19.90;55.90
74792;SHT30;63319;46.046;17.802;2022-11-30T15:00:05;19.89;55.90
74792;SHT30;63319;46.046;17.802;2022-11-30T15:03:22;19.93;55.85
74792;SHT30;63319;46.046;17.802;2022-11-30T15:06:29;19.92;55.83
74792;SHT30;63319;46.046;17.802;2022-11-30T15:09:33;19.90;56.23
74792;SHT30;63319;46.046;17.802;2022-11-30T15:12:38;19.90;56.17
74792;SHT30;63319;46.046;17.802;2022-11-30T15:15:52;19.89;55.14
74792;SHT30;63319;46.046;17.802;2022-11-30T15:18:57;19.89;55.15
74792;SHT30;63319;46.046;17.802;2022-11-30T15:22:00;19.87;54.87
74792;SHT30;63319;46.046;17.802;2022-11-30T15:25:03;19.87;55.58
74792;SHT30;63319;46.046;17.802;2022-11-30T15:28:08;19.87;55.64
74792;SHT30;63319;46.046;17.802;2022-11-30T15:31:14;19.87;55.41
74792;SHT30;63319;46.046;17.802;2022-11-30T15:34:20;19.86;55.23
74792;SHT30;63319;46.046;17.802;2022-11-30T15:37:29;19.86;55.08
74792;SHT30;63319;46.046;17.802;2022-11-30T15:40:33;19.85;54.93
74792;SHT30;63319;46.046;17.802;2022-11-30T15:43:38;19.85;54.93
74792;SHT30;63319;46.046;17.802;2022-11-30T15:46:57;19.83;54.95
74792;SHT30;63319;46.046;17.802;2022-11-30T15:50:00;19.82;55.32
74792;SHT30;63319;46.046;17.802;2022-11-30T15:56:27;19.83;55.27
74792;SHT30;63319;46.046;17.802;2022-11-30T15:59:30;19.83;54.63
74792;SHT30;63319;46.046;17.802;2022-11-30T16:02:36;19.83;54.68
74792;SHT30;63319;46.046;17.802;2022-11-30T16:05:39;19.83;54.49
74792;SHT30;63319;46.046;17.802;2022-11-30T16:08:45;19.82;54.91
74792;SHT30;63319;46.046;17.802;2022-11-30T16:11:52;19.81;54.55
74792;SHT30;63319;46.046;17.802;2022-11-30T16:14:56;19.81;54.59
74792;SHT30;63319;46.046;17.802;2022-11-30T16:18:26;19.79;54.57
74792;SHT30;63319;46.046;17.802;2022-11-30T16:21:29;19.79;54.41
74792;SHT30;63319;46.046;17.802;2022-11-30T16:24:32;19.78;54.27
74792;SHT30;63319;46.046;17.802;2022-11-30T16:27:35;19.79;54.15
74792;SHT30;63319;46.046;17.802;2022-11-30T16:30:40;19.79;54.49
74792;SHT30;63319;46.046;17.802;2022-11-30T16:33:46;19.78;53.97
74792;SHT30;63319;46.046;17.802;2022-11-30T16:36:49;19.75;54.10
74792;SHT30;63319;46.046;17.802;2022-11-30T16:39:53;19.75;53.93
74792;SHT30;63319;46.046;17.802;2022-11-30T16:42:58;19.78;54.43
74792;SHT30;63319;46.046;17.802;2022-11-30T16:46:02;19.78;54.45
74792;SHT30;63319;46.046;17.802;2022-11-30T16:49:05;19.76;54.04
74792;SHT30;63319;46.046;17.802;2022-11-30T16:52:14;19.73;53.99
74792;SHT30;63319;46.046;17.802;2022-11-30T16:55:20;19.73;54.15
74792;SHT30;63319;46.046;17.802;2022-11-30T16:58:23;19.75;54.00
74792;SHT30;63319;46.046;17.802;2022-11-30T17:01:39;19.78;53.98
74792;SHT30;63319;46.046;17.802;2022-11-30T17:04:44;19.75;54.19
74792;SHT30;63319;46.046;17.802;2022-11-30T17:07:47;19.76;53.84
74792;SHT30;63319;46.046;17.802;2022-11-30T17:10:52;19.75;53.92
74792;SHT30;63319;46.046;17.802;2022-11-30T17:13:55;19.73;53.51
74792;SHT30;63319;46.046;17.802;2022-11-30T17:16:58;19.73;53.63
74792;SHT30;63319;46.046;17.802;2022-11-30T17:20:02;19.72;53.41
74792;SHT30;63319;46.046;17.802;2022-11-30T17:23:07;19.73;53.99
74792;SHT30;63319;46.046;17.802;2022-11-30T17:26:11;19.72;53.62
74792;SHT30;63319;46.046;17.802;2022-11-30T17:29:15;19.72;53.97
74792;SHT30;63319;46.046;17.802;2022-11-30T17:32:18;19.72;53.78
74792;SHT30;63319;46.046;17.802;2022-11-30T17:35:21;19.73;53.85
74792;SHT30;63319;46.046;17.802;2022-11-30T17:38:25;19.71;53.51
74792;SHT30;63319;46.046;17.802;2022-11-30T17:41:29;19.71;53.49
74792;SHT30;63319;46.046;17.802;2022-11-30T17:44:31;19.71;53.58
74792;SHT30;63319;46.046;17.802;2022-11-30T17:47:35;19.71;53.45
74792;SHT30;63319;46.046;17.802;2022-11-30T17:50:39;19.68;53.92
74792;SHT30;63319;46.046;17.802;2022-11-30T17:53:42;19.69;53.35
74792;SHT30;63319;46.046;17.802;2022-11-30T17:56:45;19.71;53.50
74792;SHT30;63319;46.046;17.802;2022-11-30T17:59:52;19.69;53.18
74792;SHT30;63319;46.046;17.802;2022-11-30T18:02:55;19.69;53.67
74792;SHT30;63319;46.046;17.802;2022-11-30T18:06:01;19.71;53.69
74792;SHT30;63319;46.046;17.802;2022-11-30T18:09:04;19.71;53.93
74792;SHT30;63319;46.046;17.802;2022-11-30T18:12:08;19.72;53.55
74792;SHT30;63319;46.046;17.802;2022-11-30T18:15:11;19.73;53.91
74792;SHT30;63319;46.046;17.802;2022-11-30T18:18:14;19.73;53.74
74792;SHT30;63319;46.046;17.802;2022-11-30T18:21:20;19.69;53.51
74792;SHT30;63319;46.046;17.802;2022-11-30T18:24:23;19.72;53.63
74792;SHT30;63319;46.046;17.802;2022-11-30T18:27:27;19.71;53.41
74792;SHT30;63319;46.046;17.802;2022-11-30T18:30:51;19.69;53.18
74792;SHT30;63319;46.046;17.802;2022-11-30T18:33:57;19.68;53.61
74792;SHT30;63319;46.046;17.802;2022-11-30T18:37:01;19.68;53.33
74792;SHT30;63319;46.046;17.802;2022-11-30T18:40:04;19.73;53.29
74792;SHT30;63319;46.046;17.802;2022-11-30T18:43:08;19.66;53.35
74792;SHT30;63319;46.046;17.802;2022-11-30T18:46:13;19.66;53.44
74792;SHT30;63319;46.046;17.802;2022-11-30T18:49:18;19.68;52.83
74792;SHT30;63319;46.046;17.802;2022-11-30T18:52:23;19.66;52.84
74792;SHT30;63319;46.046;17.802;2022-11-30T18:55:26;19.66;52.91
74792;SHT30;63319;46.046;17.802;2022-11-30T18:58:30;19.68;52.91
74792;SHT30;63319;46.046;17.802;2022-11-30T19:01:33;19.65;52.46
74792;SHT30;63319;46.046;17.802;2022-11-30T19:04:38;19.66;53.00
74792;SHT30;63319;46.046;17.802;2022-11-30T19:07:42;19.68;52.24
74792;SHT30;63319;46.046;17.802;2022-11-30T19:10:45;19.66;52.68
74792;SHT30;63319;46.046;17.802;2022-11-30T19:13:56;19.65;53.09
74792;SHT30;63319;46.046;17.802;2022-11-30T19:17:00;19.63;52.97
74792;SHT30;63319;46.046;17.802;2022-11-30T19:20:04;19.63;53.17
74792;SHT30;63319;46.046;17.802;2022-11-30T19:23:07;19.63;53.09
74792;SHT30;63319;46.046;17.802;2022-11-30T19:26:10;19.62;52.84
74792;SHT30;63319;46.046;17.802;2022-11-30T19:29:14;19.66;52.42
74792;SHT30;63319;46.046;17.802;2022-11-30T19:32:17;19.63;52.94
74792;SHT30;63319;46.046;17.802;2022-11-30T19:35:21;19.61;52.98
74792;SHT30;63319;46.046;17.802;2022-11-30T19:38:27;19.63;52.75
74792;SHT30;63319;46.046;17.802;2022-11-30T19:41:30;19.65;52.79
74792;SHT30;63319;46.046;17.802;2022-11-30T19:44:32;19.63;52.39
74792;SHT30;63319;46.046;17.802;2022-11-30T19:47:36;19.65;52.91
74792;SHT30;63319;46.046;17.802;2022-11-30T19:50:39;19.63;52.71
74792;SHT30;63319;46.046;17.802;2022-11-30T19:53:45;19.61;52.89
74792;SHT30;63319;46.046;17.802;2022-11-30T19:56:48;19.61;52.66
74792;SHT30;63319;46.046;17.802;2022-11-30T19:59:53;19.61;52.78
74792;SHT30;63319;46.046;17.802;2022-11-30T20:03:02;19.61;52.66
74792;SHT30;63319;46.046;17.802;2022-11-30T20:06:11;19.62;52.88
74792;SHT30;63319;46.046;17.802;2022-11-30T20:09:14;19.62;52.36
74792;SHT30;63319;46.046;17.802;2022-11-30T20:12:18;19.61;52.51
74792;SHT30;63319;46.046;17.802;2022-11-30T20:15:21;19.62;52.15
74792;SHT30;63319;46.046;17.802;2022-11-30T20:18:24;19.61;52.69
74792;SHT30;63319;46.046;17.802;2022-11-30T20:21:31;19.59;52.43
74792;SHT30;63319;46.046;17.802;2022-11-30T20:24:35;19.58;52.21
74792;SHT30;63319;46.046;17.802;2022-11-30T20:27:38;19.58;52.40
74792;SHT30;63319;46.046;17.802;2022-11-30T20:30:41;19.58;52.49
74792;SHT30;63319;46.046;17.802;2022-11-30T20:33:46;19.57;52.57
74792;SHT30;63319;46.046;17.802;2022-11-30T20:36:49;19.58;52.33
74792;SHT30;63319;46.046;17.802;2022-11-30T20:39:52;19.58;52.60
74792;SHT30;63319;46.046;17.802;2022-11-30T20:42:56;19.55;52.32